sensor_id;sensor_type;location;lat;lon;timestamp;temperature;humidity
55369;DHT22;41247;49.736;8.752;2022-07-21T00:03:11;18.00;99.90
55369;DHT22;41247;49.736;8.752;2022-07-21T00:06:52;18.00;99.90
55369;DHT22;41247;49.736;8.752;2022-07-21T00:10:32;18.00;99.90
55369;DHT22;41247;49.736;8.752;2022-07-21T00:14:13;18.00;99.90
55369;DHT22;41247;49.736;8.752;2022-07-21T00:17:54;17.90;99.90
55369;DHT22;41247;49.736;8.752;2022-07-21T00:21:36;17.90;99.90
55369;DHT22;41247;49.736;8.752;2022-07-21T00:25:17;17.90;99.90
55369;DHT22;41247;49.736;8.752;2022-07-21T00:28:57;17.90;99.90
55369;DHT22;41247;49.736;8.752;2022-07-21T00:32:38;17.90;99.90
55369;DHT22;41247;49.736;8.752;2022-07-21T00:36:20;17.90;99.90
55369;DHT22;41247;49.736;8.752;2022-07-21T00:40:02;17.90;99.90
55369;DHT22;41247;49.736;8.752;2022-07-21T00:43:44;17.90;99.90
55369;DHT22;41247;49.736;8.752;2022-07-21T00:47:27;18.00;99.90
55369;DHT22;41247;49.736;8.752;2022-07-21T00:51:08;18.10;99.90
55369;DHT22;41247;49.736;8.752;2022-07-21T00:54:49;18.10;99.90
55369;DHT22;41247;49.736;8.752;2022-07-21T00:58:30;18.00;99.90
55369;DHT22;41247;49.736;8.752;2022-07-21T01:02:11;18.00;99.90
55369;DHT22;41247;49.736;8.752;2022-07-21T01:05:52;18.00;99.90
55369;DHT22;41247;49.736;8.752;2022-07-21T01:09:35;18.00;99.90
55369;DHT22;41247;49.736;8.752;2022-07-21T01:13:16;18.00;99.90
55369;DHT22;41247;49.736;8.752;2022-07-21T01:16:57;18.00;99.90
55369;DHT22;41247;49.736;8.752;2022-07-21T01:20:38;18.00;99.90
55369;DHT22;41247;49.736;8.752;2022-07-21T01:24:21;18.10;99.90
55369;DHT22;41247;49.736;8.752;2022-07-21T01:28:02;18.10;99.90
55369;DHT22;41247;49.736;8.752;2022-07-21T01:31:45;18.20;99.90
55369;DHT22;41247;49.736;8.752;2022-07-21T01:35:26;18.30;99.90
55369;DHT22;41247;49.736;8.752;2022-07-21T01:39:07;18.30;99.90
55369;DHT22;41247;49.736;8.752;2022-07-21T01:42:48;18.40;99.90
55369;DHT22;41247;49.736;8.752;2022-07-21T01:46:30;18.40;99.90
55369;DHT22;41247;49.736;8.752;2022-07-21T01:50:12;18.40;99.90
55369;DHT22;41247;49.736;8.752;2022-07-21T01:53:53;18.40;99.90
55369;DHT22;41247;49.736;8.752;2022-07-21T01:57:33;18.40;99.90
55369;DHT22;41247;49.736;8.752;2022-07-21T02:01:16;18.40;99.90
55369;DHT22;41247;49.736;8.752;2022-07-21T02:04:56;18.40;99.90
55369;DHT22;41247;49.736;8.752;2022-07-21T02:08:37;18.40;99.90
55369;DHT22;41247;49.736;8.752;2022-07-21T02:12:18;18.40;99.90
55369;DHT22;41247;49.736;8.752;2022-07-21T02:15:59;18.40;99.90
55369;DHT22;41247;49.736;8.752;2022-07-21T02:19:39;18.50;99.90
55369;DHT22;41247;49.736;8.752;2022-07-21T02:23:22;18.50;99.90
55369;DHT22;41247;49.736;8.752;2022-07-21T02:27:04;18.40;99.90
55369;DHT22;41247;49.736;8.752;2022-07-21T02:30:45;18.50;99.90
55369;DHT22;41247;49.736;8.752;2022-07-21T02:34:25;18.50;99.90
55369;DHT22;41247;49.736;8.752;2022-07-21T02:38:07;18.50;99.90
55369;DHT22;41247;49.736;8.752;2022-07-21T02:41:47;18.50;99.90
55369;DHT22;41247;49.736;8.752;2022-07-21T02:45:28;18.50;99.90
55369;DHT22;41247;49.736;8.752;2022-07-21T02:49:08;18.50;99.90
55369;DHT22;41247;49.736;8.752;2022-07-21T02:52:49;18.50;99.90
55369;DHT22;41247;49.736;8.752;2022-07-21T02:56:30;18.50;99.90
55369;DHT22;41247;49.736;8.752;2022-07-21T03:00:11;18.60;99.90
55369;DHT22;41247;49.736;8.752;2022-07-21T03:03:52;18.50;99.90
55369;DHT22;41247;49.736;8.752;2022-07-21T03:07:33;18.50;99.90
55369;DHT22;41247;49.736;8.752;2022-07-21T03:11:13;18.50;99.90
55369;DHT22;41247;49.736;8.752;2022-07-21T03:14:54;18.50;99.90
55369;DHT22;41247;49.736;8.752;2022-07-21T03:18:35;18.50;99.90
55369;DHT22;41247;49.736;8.752;2022-07-21T03:22:15;18.40;99.90
55369;DHT22;41247;49.736;8.752;2022-07-21T03:25:56;18.40;99.90
55369;DHT22;41247;49.736;8.752;2022-07-21T03:29:36;18.40;99.90
55369;DHT22;41247;49.736;8.752;2022-07-21T03:33:17;18.40;99.90
55369;DHT22;41247;49.736;8.752;2022-07-21T03:36:58;18.30;99.90
55369;DHT22;41247;49.736;8.752;2022-07-21T03:40:38;18.30;99.90
55369;DHT22;41247;49.736;8.752;2022-07-21T03:44:19;18.30;99.90
55369;DHT22;41247;49.736;8.752;2022-07-21T03:48:01;18.20;99.90
55369;DHT22;41247;49.736;8.752;2022-07-21T03:51:43;18.10;99.90
55369;DHT22;41247;49.736;8.752;2022-07-21T03:55:24;18.10;99.90
55369;DHT22;41247;49.736;8.752;2022-07-21T03:59:05;18.10;99.90
55369;DHT22;41247;49.736;8.752;2022-07-21T04:02:46;18.00;99.90
55369;DHT22;41247;49.736;8.752;2022-07-21T04:06:27;18.10;99.90
55369;DHT22;41247;49.736;8.752;2022-07-21T04:10:09;18.10;99.90
55369;DHT22;41247;49.736;8.752;2022-07-21T04:13:51;18.10;99.90
55369;DHT22;41247;49.736;8.752;2022-07-21T04:17:32;18.10;99.90
55369;DHT22;41247;49.736;8.752;2022-07-21T04:21:13;18.10;99.90
55369;DHT22;41247;49.736;8.752;2022-07-21T04:24:53;18.10;99.90
55369;DHT22;41247;49.736;8.752;2022-07-21T04:28:34;18.20;99.90
55369;DHT22;41247;49.736;8.752;2022-07-21T04:32:15;18.20;99.90
55369;DHT22;41247;49.736;8.752;2022-07-21T04:35:55;18.20;99.90
55369;DHT22;41247;49.736;8.752;2022-07-21T04:39:36;18.20;99.90
55369;DHT22;41247;49.736;8.752;2022-07-21T04:43:16;18.20;99.90
55369;DHT22;41247;49.736;8.752;2022-07-21T04:46:57;18.30;99.90
55369;DHT22;41247;49.736;8.752;2022-07-21T04:50:38;18.30;99.90
55369;DHT22;41247;49.736;8.752;2022-07-21T04:54:18;18.30;99.90
55369;DHT22;41247;49.736;8.752;2022-07-21T04:57:59;18.30;99.90
55369;DHT22;41247;49.736;8.752;2022-07-21T05:01:39;18.40;99.90
55369;DHT22;41247;49.736;8.752;2022-07-21T05:05:20;18.40;99.90
55369;DHT22;41247;49.736;8.752;2022-07-21T05:09:02;18.40;99.90
55369;DHT22;41247;49.736;8.752;2022-07-21T05:12:43;18.50;99.90
55369;DHT22;41247;49.736;8.752;2022-07-21T05:16:24;18.60;99.90
55369;DHT22;41247;49.736;8.752;2022-07-21T05:20:05;18.70;99.90
55369;DHT22;41247;49.736;8.752;2022-07-21T05:23:46;18.70;99.90
55369;DHT22;41247;49.736;8.752;2022-07-21T05:27:26;18.70;99.90
55369;DHT22;41247;49.736;8.752;2022-07-21T05:31:08;18.80;99.90
55369;DHT22;41247;49.736;8.752;2022-07-21T05:34:48;18.80;99.90
55369;DHT22;41247;49.736;8.752;2022-07-21T05:38:29;18.80;99.90
55369;DHT22;41247;49.736;8.752;2022-07-21T05:42:10;18.80;99.90
55369;DHT22;41247;49.736;8.752;2022-07-21T05:45:51;18.90;99.90
55369;DHT22;41247;49.736;8.752;2022-07-21T05:49:33;18.90;99.90
55369;DHT22;41247;49.736;8.752;2022-07-21T05:53:14;19.10;99.90
55369;DHT22;41247;49.736;8.752;2022-07-21T05:56:54;19.40;99.90
55369;DHT22;41247;49.736;8.752;2022-07-21T06:00:35;19.60;99.90
55369;DHT22;41247;49.736;8.752;2022-07-21T06:04:16;19.60;99.90
55369;DHT22;41247;49.736;8.752;2022-07-21T06:07:56;19.60;99.90
55369;DHT22;41247;49.736;8.752;2022-07-21T06:11:37;19.50;99.90
55369;DHT22;41247;49.736;8.752;2022-07-21T06:15:18;19.30;99.90
55369;DHT22;41247;49.736;8.752;2022-07-21T06:18:58;19.20;99.90
55369;DHT22;41247;49.736;8.752;2022-07-21T06:22:39;19.00;99.90
55369;DHT22;41247;49.736;8.752;2022-07-21T06:26:20;19.00;99.90
55369;DHT22;41247;49.736;8.752;2022-07-21T06:30:01;19.10;99.90
55369;DHT22;41247;49.736;8.752;2022-07-21T06:33:41;19.30;99.90
55369;DHT22;41247;49.736;8.752;2022-07-21T06:37:22;19.40;99.90
55369;DHT22;41247;49.736;8.752;2022-07-21T06:41:02;19.50;99.90
55369;DHT22;41247;49.736;8.752;2022-07-21T06:44:43;19.60;99.90
55369;DHT22;41247;49.736;8.752;2022-07-21T06:48:24;19.80;99.90
55369;DHT22;41247;49.736;8.752;2022-07-21T06:52:05;19.80;99.90
55369;DHT22;41247;49.736;8.752;2022-07-21T06:55:46;19.80;99.90
55369;DHT22;41247;49.736;8.752;2022-07-21T06:59:27;19.90;99.90
55369;DHT22;41247;49.736;8.752;2022-07-21T07:03:08;19.90;99.90
55369;DHT22;41247;49.736;8.752;2022-07-21T07:06:51;19.90;99.90
55369;DHT22;41247;49.736;8.752;2022-07-21T07:10:32;20.10;99.90
55369;DHT22;41247;49.736;8.752;2022-07-21T07:14:13;20.30;99.90
55369;DHT22;41247;49.736;8.752;2022-07-21T07:17:54;20.60;99.90
55369;DHT22;41247;49.736;8.752;2022-07-21T07:21:35;20.80;99.90
55369;DHT22;41247;49.736;8.752;2022-07-21T07:25:16;21.00;99.90
55369;DHT22;41247;49.736;8.752;2022-07-21T07:28:57;21.10;99.90
55369;DHT22;41247;49.736;8.752;2022-07-21T07:32:38;21.00;99.90
55369;DHT22;41247;49.736;8.752;2022-07-21T07:36:19;20.90;99.90
55369;DHT22;41247;49.736;8.752;2022-07-21T07:39:59;20.80;99.90
55369;DHT22;41247;49.736;8.752;2022-07-21T07:43:40;20.70;99.90
55369;DHT22;41247;49.736;8.752;2022-07-21T07:47:20;20.70;99.90
55369;DHT22;41247;49.736;8.752;2022-07-21T07:51:01;21.10;99.90
55369;DHT22;41247;49.736;8.752;2022-07-21T07:54:42;21.10;99.90
55369;DHT22;41247;49.736;8.752;2022-07-21T07:58:22;21.00;99.90
55369;DHT22;41247;49.736;8.752;2022-07-21T08:02:03;20.80;99.90
55369;DHT22;41247;49.736;8.752;2022-07-21T08:05:44;20.80;99.90
55369;DHT22;41247;49.736;8.752;2022-07-21T08:09:24;21.10;99.90
55369;DHT22;41247;49.736;8.752;2022-07-21T08:13:05;21.10;99.90
55369;DHT22;41247;49.736;8.752;2022-07-21T08:16:46;21.10;99.90
55369;DHT22;41247;49.736;8.752;2022-07-21T08:20:26;21.80;99.90
55369;DHT22;41247;49.736;8.752;2022-07-21T08:24:07;21.70;99.90
55369;DHT22;41247;49.736;8.752;2022-07-21T08:27:48;21.40;99.90
55369;DHT22;41247;49.736;8.752;2022-07-21T08:31:29;21.00;99.90
55369;DHT22;41247;49.736;8.752;2022-07-21T08:35:09;20.70;99.90
55369;DHT22;41247;49.736;8.752;2022-07-21T08:38:50;20.70;99.90
55369;DHT22;41247;49.736;8.752;2022-07-21T08:42:31;20.90;99.90
55369;DHT22;41247;49.736;8.752;2022-07-21T08:46:11;21.50;99.90
55369;DHT22;41247;49.736;8.752;2022-07-21T08:49:54;21.80;99.90
55369;DHT22;41247;49.736;8.752;2022-07-21T08:53:35;22.00;99.90
55369;DHT22;41247;49.736;8.752;2022-07-21T08:57:16;22.10;99.90
55369;DHT22;41247;49.736;8.752;2022-07-21T09:00:57;22.40;99.90
55369;DHT22;41247;49.736;8.752;2022-07-21T09:04:37;22.80;99.90
55369;DHT22;41247;49.736;8.752;2022-07-21T09:08:35;23.30;99.90
55369;DHT22;41247;49.736;8.752;2022-07-21T09:12:19;23.20;99.90
55369;DHT22;41247;49.736;8.752;2022-07-21T09:16:00;22.80;99.90
55369;DHT22;41247;49.736;8.752;2022-07-21T09:19:44;22.50;99.90
55369;DHT22;41247;49.736;8.752;2022-07-21T09:23:26;22.30;99.90
55369;DHT22;41247;49.736;8.752;2022-07-21T09:27:12;22.40;99.90
55369;DHT22;41247;49.736;8.752;2022-07-21T09:30:58;22.20;99.90
55369;DHT22;41247;49.736;8.752;2022-07-21T09:34:39;22.30;99.90
55369;DHT22;41247;49.736;8.752;2022-07-21T09:38:20;22.30;99.90
55369;DHT22;41247;49.736;8.752;2022-07-21T09:42:15;22.50;99.90
55369;DHT22;41247;49.736;8.752;2022-07-21T09:46:05;22.90;99.90
55369;DHT22;41247;49.736;8.752;2022-07-21T09:49:46;23.10;99.90
55369;DHT22;41247;49.736;8.752;2022-07-21T09:53:47;23.20;99.90
55369;DHT22;41247;49.736;8.752;2022-07-21T09:57:34;23.50;99.90
55369;DHT22;41247;49.736;8.752;2022-07-21T10:01:15;23.70;99.90
55369;DHT22;41247;49.736;8.752;2022-07-21T10:04:59;23.80;99.90
55369;DHT22;41247;49.736;8.752;2022-07-21T10:08:42;23.90;99.90
55369;DHT22;41247;49.736;8.752;2022-07-21T10:12:25;23.90;99.90
55369;DHT22;41247;49.736;8.752;2022-07-21T10:16:10;24.10;99.90
55369;DHT22;41247;49.736;8.752;2022-07-21T10:20:23;24.50;99.90
55369;DHT22;41247;49.736;8.752;2022-07-21T10:24:11;24.50;99.90
55369;DHT22;41247;49.736;8.752;2022-07-21T10:32:10;23.80;99.90
55369;DHT22;41247;49.736;8.752;2022-07-21T10:35:51;23.50;99.90
55369;DHT22;41247;49.736;8.752;2022-07-21T10:39:32;23.30;99.90
55369;DHT22;41247;49.736;8.752;2022-07-21T10:47:16;23.10;99.90
55369;DHT22;41247;49.736;8.752;2022-07-21T10:51:14;23.20;99.90
55369;DHT22;41247;49.736;8.752;2022-07-21T10:55:16;23.80;99.90
55369;DHT22;41247;49.736;8.752;2022-07-21T10:58:57;24.80;99.90
55369;DHT22;41247;49.736;8.752;2022-07-21T11:02:37;25.20;99.90
55369;DHT22;41247;49.736;8.752;2022-07-21T11:06:21;25.70;99.90
55369;DHT22;41247;49.736;8.752;2022-07-21T11:10:17;25.70;99.90
55369;DHT22;41247;49.736;8.752;2022-07-21T11:14:12;26.20;99.90
55369;DHT22;41247;49.736;8.752;2022-07-21T11:17:57;26.30;99.90
55369;DHT22;41247;49.736;8.752;2022-07-21T11:21:38;26.40;99.90
55369;DHT22;41247;49.736;8.752;2022-07-21T11:25:18;26.60;99.90
55369;DHT22;41247;49.736;8.752;2022-07-21T11:29:06;26.80;99.90
55369;DHT22;41247;49.736;8.752;2022-07-21T11:32:47;27.10;99.90
55369;DHT22;41247;49.736;8.752;2022-07-21T11:36:30;27.20;99.90
55369;DHT22;41247;49.736;8.752;2022-07-21T11:40:14;27.50;99.90
55369;DHT22;41247;49.736;8.752;2022-07-21T11:43:59;27.60;99.90
55369;DHT22;41247;49.736;8.752;2022-07-21T11:47:40;27.30;99.90
55369;DHT22;41247;49.736;8.752;2022-07-21T11:51:20;27.10;99.90
55369;DHT22;41247;49.736;8.752;2022-07-21T11:55:03;26.40;99.90
55369;DHT22;41247;49.736;8.752;2022-07-21T11:58:44;25.90;99.90
55369;DHT22;41247;49.736;8.752;2022-07-21T12:02:26;25.50;99.90
55369;DHT22;41247;49.736;8.752;2022-07-21T12:06:08;25.70;99.90
55369;DHT22;41247;49.736;8.752;2022-07-21T12:09:51;26.70;99.90
55369;DHT22;41247;49.736;8.752;2022-07-21T12:13:53;27.20;99.90
55369;DHT22;41247;49.736;8.752;2022-07-21T12:17:45;27.40;99.90
55369;DHT22;41247;49.736;8.752;2022-07-21T12:21:26;27.80;99.90
55369;DHT22;41247;49.736;8.752;2022-07-21T12:25:07;28.20;99.90
55369;DHT22;41247;49.736;8.752;2022-07-21T12:28:49;28.00;99.90
55369;DHT22;41247;49.736;8.752;2022-07-21T12:36:20;28.10;99.90
55369;DHT22;41247;49.736;8.752;2022-07-21T12:40:03;27.60;99.90
55369;DHT22;41247;49.736;8.752;2022-07-21T12:43:59;27.00;99.90
55369;DHT22;41247;49.736;8.752;2022-07-21T12:47:41;27.00;99.90
55369;DHT22;41247;49.736;8.752;2022-07-21T12:51:22;27.20;99.90
55369;DHT22;41247;49.736;8.752;2022-07-21T12:55:04;27.70;99.90
55369;DHT22;41247;49.736;8.752;2022-07-21T12:58:46;28.30;99.90
55369;DHT22;41247;49.736;8.752;2022-07-21T13:02:27;27.80;99.90
55369;DHT22;41247;49.736;8.752;2022-07-21T13:06:08;27.50;99.90
55369;DHT22;41247;49.736;8.752;2022-07-21T13:09:49;27.20;99.90
55369;DHT22;41247;49.736;8.752;2022-07-21T13:13:30;27.10;99.90
55369;DHT22;41247;49.736;8.752;2022-07-21T13:17:11;26.90;99.90
55369;DHT22;41247;49.736;8.752;2022-07-21T13:20:53;26.70;99.90
55369;DHT22;41247;49.736;8.752;2022-07-21T13:24:33;26.60;99.90
55369;DHT22;41247;49.736;8.752;2022-07-21T13:28:15;26.30;99.90
55369;DHT22;41247;49.736;8.752;2022-07-21T13:31:56;27.20;99.90
55369;DHT22;41247;49.736;8.752;2022-07-21T13:35:37;28.10;99.90
55369;DHT22;41247;49.736;8.752;2022-07-21T13:39:18;28.50;99.90
55369;DHT22;41247;49.736;8.752;2022-07-21T13:42:58;27.60;99.90
55369;DHT22;41247;49.736;8.752;2022-07-21T13:46:39;26.70;99.90
55369;DHT22;41247;49.736;8.752;2022-07-21T13:50:19;26.20;99.90
55369;DHT22;41247;49.736;8.752;2022-07-21T13:54:00;25.70;99.90
55369;DHT22;41247;49.736;8.752;2022-07-21T13:57:40;25.50;99.90
55369;DHT22;41247;49.736;8.752;2022-07-21T14:01:21;25.70;99.90
55369;DHT22;41247;49.736;8.752;2022-07-21T14:05:02;26.00;99.90
55369;DHT22;41247;49.736;8.752;2022-07-21T14:08:44;26.00;99.90
55369;DHT22;41247;49.736;8.752;2022-07-21T14:12:25;26.20;99.90
55369;DHT22;41247;49.736;8.752;2022-07-21T14:16:06;27.00;99.90
55369;DHT22;41247;49.736;8.752;2022-07-21T14:19:46;27.10;99.90
55369;DHT22;41247;49.736;8.752;2022-07-21T14:23:27;26.80;99.90
55369;DHT22;41247;49.736;8.752;2022-07-21T14:27:07;26.40;99.90
55369;DHT22;41247;49.736;8.752;2022-07-21T14:30:48;26.10;99.90
55369;DHT22;41247;49.736;8.752;2022-07-21T14:34:29;25.90;99.90
55369;DHT22;41247;49.736;8.752;2022-07-21T14:38:10;25.70;99.90
55369;DHT22;41247;49.736;8.752;2022-07-21T14:41:50;25.60;99.90
55369;DHT22;41247;49.736;8.752;2022-07-21T14:45:31;25.50;99.90
55369;DHT22;41247;49.736;8.752;2022-07-21T14:49:11;25.40;99.90
55369;DHT22;41247;49.736;8.752;2022-07-21T14:52:52;25.40;99.90
55369;DHT22;41247;49.736;8.752;2022-07-21T14:56:34;25.60;99.90
55369;DHT22;41247;49.736;8.752;2022-07-21T15:00:15;25.70;99.90
55369;DHT22;41247;49.736;8.752;2022-07-21T15:03:55;25.60;99.90
55369;DHT22;41247;49.736;8.752;2022-07-21T15:07:36;25.40;99.90
55369;DHT22;41247;49.736;8.752;2022-07-21T15:11:17;25.80;99.90
55369;DHT22;41247;49.736;8.752;2022-07-21T15:14:57;26.00;99.90
55369;DHT22;41247;49.736;8.752;2022-07-21T15:18:39;25.90;99.90
55369;DHT22;41247;49.736;8.752;2022-07-21T15:22:19;26.20;99.90
55369;DHT22;41247;49.736;8.752;2022-07-21T15:26:00;27.00;99.90
55369;DHT22;41247;49.736;8.752;2022-07-21T15:29:41;27.00;99.90
55369;DHT22;41247;49.736;8.752;2022-07-21T15:33:21;26.50;99.90
55369;DHT22;41247;49.736;8.752;2022-07-21T15:37:02;26.00;99.90
55369;DHT22;41247;49.736;8.752;2022-07-21T15:40:42;25.70;99.90
55369;DHT22;41247;49.736;8.752;2022-07-21T15:44:23;25.90;99.90
55369;DHT22;41247;49.736;8.752;2022-07-21T15:48:05;26.20;99.90
55369;DHT22;41247;49.736;8.752;2022-07-21T15:51:46;26.20;99.90
55369;DHT22;41247;49.736;8.752;2022-07-21T15:55:27;26.40;99.90
55369;DHT22;41247;49.736;8.752;2022-07-21T15:59:07;26.10;99.90
55369;DHT22;41247;49.736;8.752;2022-07-21T16:02:48;25.70;99.90
55369;DHT22;41247;49.736;8.752;2022-07-21T16:06:28;25.40;99.90
55369;DHT22;41247;49.736;8.752;2022-07-21T16:10:10;25.30;99.90
55369;DHT22;41247;49.736;8.752;2022-07-21T16:13:51;25.10;99.90
55369;DHT22;41247;49.736;8.752;2022-07-21T16:17:32;25.10;99.90
55369;DHT22;41247;49.736;8.752;2022-07-21T16:21:13;24.90;99.90
55369;DHT22;41247;49.736;8.752;2022-07-21T16:24:54;24.80;99.90
55369;DHT22;41247;49.736;8.752;2022-07-21T16:28:34;24.70;99.90
55369;DHT22;41247;49.736;8.752;2022-07-21T16:32:15;24.60;99.90
55369;DHT22;41247;49.736;8.752;2022-07-21T16:35:55;24.60;99.90
55369;DHT22;41247;49.736;8.752;2022-07-21T16:39:36;24.60;99.90
55369;DHT22;41247;49.736;8.752;2022-07-21T16:43:18;24.60;99.90
55369;DHT22;41247;49.736;8.752;2022-07-21T16:46:58;24.60;99.90
55369;DHT22;41247;49.736;8.752;2022-07-21T16:50:39;24.70;99.90
55369;DHT22;41247;49.736;8.752;2022-07-21T16:54:20;24.60;99.90
55369;DHT22;41247;49.736;8.752;2022-07-21T16:58:00;24.50;99.90
55369;DHT22;41247;49.736;8.752;2022-07-21T17:01:41;24.30;99.90
55369;DHT22;41247;49.736;8.752;2022-07-21T17:05:21;24.20;99.90
55369;DHT22;41247;49.736;8.752;2022-07-21T17:09:03;24.20;99.90
55369;DHT22;41247;49.736;8.752;2022-07-21T17:12:44;24.10;99.90
55369;DHT22;41247;49.736;8.752;2022-07-21T17:16:25;24.00;99.90
55369;DHT22;41247;49.736;8.752;2022-07-21T17:20:06;24.00;99.90
55369;DHT22;41247;49.736;8.752;2022-07-21T17:23:48;24.10;99.90
55369;DHT22;41247;49.736;8.752;2022-07-21T17:27:28;24.20;99.90
55369;DHT22;41247;49.736;8.752;2022-07-21T17:31:09;24.40;99.90
55369;DHT22;41247;49.736;8.752;2022-07-21T17:34:49;24.60;99.90
55369;DHT22;41247;49.736;8.752;2022-07-21T17:38:30;24.80;99.90
55369;DHT22;41247;49.736;8.752;2022-07-21T17:42:11;24.90;99.90
55369;DHT22;41247;49.736;8.752;2022-07-21T17:45:52;24.80;99.90
55369;DHT22;41247;49.736;8.752;2022-07-21T17:49:33;24.60;99.90
55369;DHT22;41247;49.736;8.752;2022-07-21T17:53:14;24.40;99.90
55369;DHT22;41247;49.736;8.752;2022-07-21T17:56:54;24.10;99.90
55369;DHT22;41247;49.736;8.752;2022-07-21T18:00:35;23.90;99.90
55369;DHT22;41247;49.736;8.752;2022-07-21T18:04:15;23.70;99.90
55369;DHT22;41247;49.736;8.752;2022-07-21T18:07:56;23.60;99.90
55369;DHT22;41247;49.736;8.752;2022-07-21T18:11:37;23.40;99.90
55369;DHT22;41247;49.736;8.752;2022-07-21T18:15:18;23.40;99.90
55369;DHT22;41247;49.736;8.752;2022-07-21T18:18:58;23.50;99.90
55369;DHT22;41247;49.736;8.752;2022-07-21T18:22:39;23.50;99.90
55369;DHT22;41247;49.736;8.752;2022-07-21T18:26:20;23.50;99.90
55369;DHT22;41247;49.736;8.752;2022-07-21T18:30:01;23.40;99.90
55369;DHT22;41247;49.736;8.752;2022-07-21T18:33:41;23.40;99.90
55369;DHT22;41247;49.736;8.752;2022-07-21T18:37:22;23.30;99.90
55369;DHT22;41247;49.736;8.752;2022-07-21T18:41:03;23.20;99.90
55369;DHT22;41247;49.736;8.752;2022-07-21T18:44:43;23.10;99.90
55369;DHT22;41247;49.736;8.752;2022-07-21T18:48:24;23.00;99.90
55369;DHT22;41247;49.736;8.752;2022-07-21T18:52:05;22.80;99.90
55369;DHT22;41247;49.736;8.752;2022-07-21T18:55:45;22.60;99.90
55369;DHT22;41247;49.736;8.752;2022-07-21T18:59:26;22.50;99.90
55369;DHT22;41247;49.736;8.752;2022-07-21T19:03:07;22.30;99.90
55369;DHT22;41247;49.736;8.752;2022-07-21T19:06:47;22.10;99.90
55369;DHT22;41247;49.736;8.752;2022-07-21T19:10:28;22.00;99.90
55369;DHT22;41247;49.736;8.752;2022-07-21T19:14:09;22.00;99.90
55369;DHT22;41247;49.736;8.752;2022-07-21T19:17:49;21.80;99.90
55369;DHT22;41247;49.736;8.752;2022-07-21T19:21:30;21.80;99.90
55369;DHT22;41247;49.736;8.752;2022-07-21T19:25:12;21.70;99.90
55369;DHT22;41247;49.736;8.752;2022-07-21T19:28:53;21.60;99.90
55369;DHT22;41247;49.736;8.752;2022-07-21T19:32:34;21.60;99.90
55369;DHT22;41247;49.736;8.752;2022-07-21T19:36:15;21.40;99.90
55369;DHT22;41247;49.736;8.752;2022-07-21T19:39:55;21.30;99.90
55369;DHT22;41247;49.736;8.752;2022-07-21T19:43:36;21.20;99.90
55369;DHT22;41247;49.736;8.752;2022-07-21T19:47:17;21.00;99.90
55369;DHT22;41247;49.736;8.752;2022-07-21T19:50:58;20.80;99.90
55369;DHT22;41247;49.736;8.752;2022-07-21T19:54:39;20.60;99.90
55369;DHT22;41247;49.736;8.752;2022-07-21T19:58:19;20.50;99.90
55369;DHT22;41247;49.736;8.752;2022-07-21T20:02:00;20.30;99.90
55369;DHT22;41247;49.736;8.752;2022-07-21T20:05:41;20.20;99.90
55369;DHT22;41247;49.736;8.752;2022-07-21T20:09:21;20.10;99.90
55369;DHT22;41247;49.736;8.752;2022-07-21T20:13:02;20.00;99.90
55369;DHT22;41247;49.736;8.752;2022-07-21T20:16:43;20.10;99.90
55369;DHT22;41247;49.736;8.752;2022-07-21T20:20:24;20.10;99.90
55369;DHT22;41247;49.736;8.752;2022-07-21T20:24:05;20.10;99.90
55369;DHT22;41247;49.736;8.752;2022-07-21T20:27:46;20.10;99.90
55369;DHT22;41247;49.736;8.752;2022-07-21T20:31:27;20.10;99.90
55369;DHT22;41247;49.736;8.752;2022-07-21T20:35:08;20.10;99.90
55369;DHT22;41247;49.736;8.752;2022-07-21T20:38:48;20.10;99.90
55369;DHT22;41247;49.736;8.752;2022-07-21T20:42:29;20.10;99.90
55369;DHT22;41247;49.736;8.752;2022-07-21T20:46:10;20.10;99.90
55369;DHT22;41247;49.736;8.752;2022-07-21T20:49:50;20.10;99.90
55369;DHT22;41247;49.736;8.752;2022-07-21T20:53:31;19.90;99.90
55369;DHT22;41247;49.736;8.752;2022-07-21T20:57:12;19.90;99.90
55369;DHT22;41247;49.736;8.752;2022-07-21T21:00:52;19.90;99.90
55369;DHT22;41247;49.736;8.752;2022-07-21T21:04:33;19.70;99.90
55369;DHT22;41247;49.736;8.752;2022-07-21T21:08:14;19.60;99.90
55369;DHT22;41247;49.736;8.752;2022-07-21T21:11:55;19.50;99.90
55369;DHT22;41247;49.736;8.752;2022-07-21T21:15:36;19.50;99.90
55369;DHT22;41247;49.736;8.752;2022-07-21T21:19:17;19.50;99.90
55369;DHT22;41247;49.736;8.752;2022-07-21T21:22:58;19.40;99.90
55369;DHT22;41247;49.736;8.752;2022-07-21T21:26:38;19.40;99.90
55369;DHT22;41247;49.736;8.752;2022-07-21T21:30:19;19.30;99.90
55369;DHT22;41247;49.736;8.752;2022-07-21T21:34:00;19.30;99.90
55369;DHT22;41247;49.736;8.752;2022-07-21T21:37:40;19.20;99.90
55369;DHT22;41247;49.736;8.752;2022-07-21T21:41:21;19.10;99.90
55369;DHT22;41247;49.736;8.752;2022-07-21T21:45:02;19.10;99.90
55369;DHT22;41247;49.736;8.752;2022-07-21T21:48:44;19.00;99.90
55369;DHT22;41247;49.736;8.752;2022-07-21T21:52:25;18.90;99.90
55369;DHT22;41247;49.736;8.752;2022-07-21T21:56:06;18.80;99.90
55369;DHT22;41247;49.736;8.752;2022-07-21T21:59:46;18.70;99.90
55369;DHT22;41247;49.736;8.752;2022-07-21T22:03:27;18.60;99.90
55369;DHT22;41247;49.736;8.752;2022-07-21T22:07:08;18.50;99.90
55369;DHT22;41247;49.736;8.752;2022-07-21T22:10:48;18.50;99.90
55369;DHT22;41247;49.736;8.752;2022-07-21T22:14:29;18.30;99.90
55369;DHT22;41247;49.736;8.752;2022-07-21T22:18:09;18.30;99.90
55369;DHT22;41247;49.736;8.752;2022-07-21T22:21:50;18.20;99.90
55369;DHT22;41247;49.736;8.752;2022-07-21T22:25:31;18.20;99.90
55369;DHT22;41247;49.736;8.752;2022-07-21T22:29:11;18.10;99.90
55369;DHT22;41247;49.736;8.752;2022-07-21T22:32:55;18.10;99.90
55369;DHT22;41247;49.736;8.752;2022-07-21T22:36:35;17.90;99.90
55369;DHT22;41247;49.736;8.752;2022-07-21T22:40:16;17.90;99.90
55369;DHT22;41247;49.736;8.752;2022-07-21T22:43:57;17.80;99.90
55369;DHT22;41247;49.736;8.752;2022-07-21T22:47:37;17.80;99.90
55369;DHT22;41247;49.736;8.752;2022-07-21T22:51:18;17.70;99.90
55369;DHT22;41247;49.736;8.752;2022-07-21T22:54:59;17.60;99.90
55369;DHT22;41247;49.736;8.752;2022-07-21T22:58:39;17.50;99.90
55369;DHT22;41247;49.736;8.752;2022-07-21T23:02:20;17.40;99.90
55369;DHT22;41247;49.736;8.752;2022-07-21T23:06:04;17.30;99.90
55369;DHT22;41247;49.736;8.752;2022-07-21T23:09:44;17.20;99.90
55369;DHT22;41247;49.736;8.752;2022-07-21T23:13:25;17.20;99.90
55369;DHT22;41247;49.736;8.752;2022-07-21T23:17:06;17.10;99.90
55369;DHT22;41247;49.736;8.752;2022-07-21T23:20:46;16.90;99.90
55369;DHT22;41247;49.736;8.752;2022-07-21T23:24:27;16.80;99.90
55369;DHT22;41247;49.736;8.752;2022-07-21T23:28:08;16.70;99.90
55369;DHT22;41247;49.736;8.752;2022-07-21T23:31:49;16.70;99.90